Time,TemperatureF,DewpointF,PressureIn,WindDirection,WindDirectionDegrees,WindSpeedMPH,WindSpeedGustMPH,Humidity,HourlyPrecipIn,Conditions,Clouds,dailyrainin,SolarRadiationWatts/m^2,UVIndex,SoftwareType,DateUTC
2026-05-02 00:04:59,50.2,48.5,29.93,East,82,0,0,94,0.00,,,0.00,0,0,n/a,2026-05-02T04:04:59Z
2026-05-02 00:09:57,50.3,48.6,29.93,East,82,0,0,94,0.00,,,0.00,0,0,n/a,2026-05-02T04:09:57Z
2026-05-02 00:14:56,50.3,48.6,29.93,East,82,0,1.2,94,0.00,,,0.00,0,0,n/a,2026-05-02T04:14:56Z
2026-05-02 00:19:59,50.3,48.6,29.93,East,82,0,0,94,0.00,,,0.00,0,0,n/a,2026-05-02T04:19:59Z
2026-05-02 00:24:57,50.3,48.6,29.93,East,82,0,0,94,0.00,,,0.00,0,0,n/a,2026-05-02T04:24:57Z
2026-05-02 00:29:56,50.4,48.7,29.93,East,82,0,0,94,0.00,,,0.00,0,0,n/a,2026-05-02T04:29:56Z
2026-05-02 00:34:59,50.4,48.7,29.93,East,82,0.1,1.2,94,0.00,,,0.00,0,0,n/a,2026-05-02T04:34:59Z
2026-05-02 00:39:58,50.4,48.7,29.93,East,82,0.1,1.2,94,0.00,,,0.00,0,0,n/a,2026-05-02T04:39:58Z
2026-05-02 00:44:56,50.4,48.7,29.93,East,82,0.3,1.2,94,0.00,,,0.00,0,0,n/a,2026-05-02T04:44:56Z
2026-05-02 00:49:58,50.5,48.8,29.93,East,82,0,1.2,94,0.00,,,0.00,0,0,n/a,2026-05-02T04:49:58Z
2026-05-02 00:54:57,50.5,48.8,29.93,East,82,0,1.2,94,0.00,,,0.00,0,0,n/a,2026-05-02T04:54:57Z
2026-05-02 00:59:56,50.5,48.8,29.93,East,82,0.7,1.2,94,0.00,,,0.00,0,0,n/a,2026-05-02T04:59:56Z
2026-05-02 01:04:56,50.6,48.9,29.92,East,82,0,1.2,94,0.00,,,0.00,0,0,n/a,2026-05-02T05:04:56Z
2026-05-02 01:09:56,50.6,48.9,29.92,East,82,0.1,1.2,94,0.00,,,0.00,0,0,n/a,2026-05-02T05:09:56Z
2026-05-02 01:14:56,50.5,48.8,29.92,East,82,0,0,94,0.00,,,0.00,0,0,n/a,2026-05-02T05:14:56Z
2026-05-02 01:19:58,50.5,48.8,29.92,East,82,0,1.2,94,0.00,,,0.00,0,0,n/a,2026-05-02T05:19:58Z
2026-05-02 01:24:57,50.5,48.8,29.92,East,82,0,0,94,0.00,,,0.00,0,0,n/a,2026-05-02T05:24:57Z
2026-05-02 01:29:59,50.5,48.8,29.92,East,82,0,0,94,0.00,,,0.00,0,0,n/a,2026-05-02T05:29:59Z
2026-05-02 01:34:58,50.5,48.8,29.92,East,82,0,0,94,0.00,,,0.00,0,0,n/a,2026-05-02T05:34:58Z
2026-05-02 01:39:57,50.5,48.8,29.92,East,82,0,0,94,0.00,,,0.00,0,0,n/a,2026-05-02T05:39:57Z
2026-05-02 01:44:56,50.5,48.8,29.92,East,82,0,0,94,0.00,,,0.00,0,0,n/a,2026-05-02T05:44:56Z
2026-05-02 01:49:58,50.5,48.8,29.92,East,82,0,0,94,0.00,,,0.00,0,0,n/a,2026-05-02T05:49:58Z
2026-05-02 01:54:57,50.4,48.7,29.92,East,82,0,0,94,0.00,,,0.00,0,0,n/a,2026-05-02T05:54:57Z
2026-05-02 01:59:59,50.5,48.8,29.92,NE,47,0,1.2,94,0.00,,,0.00,0,0,n/a,2026-05-02T05:59:59Z
2026-05-02 02:04:56,50.5,48.8,29.91,NE,47,0.1,1.2,94,0.00,,,0.00,0,0,n/a,2026-05-02T06:04:56Z
2026-05-02 02:09:56,50.6,49,29.91,NE,48,1,2.4,94.2,0.00,,,0.00,0,0,n/a,2026-05-02T06:09:56Z
2026-05-02 02:14:59,50.7,49,29.91,ENE,66,0.6,2.4,94.2,0.00,,,0.00,0,0,n/a,2026-05-02T06:14:59Z
2026-05-02 02:19:57,50.7,49,29.91,ENE,69,0,0,94,0.00,,,0.00,0,0,n/a,2026-05-02T06:19:57Z
2026-05-02 02:24:56,50.7,49,29.91,ENE,69,0.5,1.2,94,0.00,,,0.00,0,0,n/a,2026-05-02T06:24:56Z
2026-05-02 02:29:58,50.8,49.3,29.91,ENE,69,0.1,1.2,94.7,0.00,,,0.00,0,0,n/a,2026-05-02T06:29:58Z
2026-05-02 02:34:58,50.8,49.1,29.90,ENE,69,0.1,1.2,94,0.00,,,0.00,0,0,n/a,2026-05-02T06:34:58Z
2026-05-02 02:39:57,50.9,49.5,29.90,ENE,69,0.3,1.2,94.7,0.00,,,0.00,0,0,n/a,2026-05-02T06:39:57Z
2026-05-02 02:44:59,51.1,49.7,29.90,NNE,31,0.6,2.4,95,0.00,,,0.00,0,0,n/a,2026-05-02T06:44:59Z
2026-05-02 02:49:57,51.2,49.8,29.90,NNE,23,0.7,2.4,95,0.00,,,0.00,0,0,n/a,2026-05-02T06:49:57Z
2026-05-02 02:54:56,51.3,50,29.90,NNE,23,0.2,2.3,95,0.00,,,0.00,0,0,n/a,2026-05-02T06:54:56Z
2026-05-02 02:59:59,51.4,50,29.90,NNE,23,0,0,95,0.00,,,0.00,0,0,n/a,2026-05-02T06:59:59Z
2026-05-02 03:04:59,51.5,50.1,29.90,NNE,23,0.6,1.2,95,0.00,,,0.00,0,0,n/a,2026-05-02T07:04:59Z
2026-05-02 03:09:59,51.7,50.3,29.90,NNE,23,0.7,1.2,95,0.00,,,0.00,0,0,n/a,2026-05-02T07:09:59Z
2026-05-02 03:14:59,51.7,50.3,29.90,NNE,23,0.2,1.2,95,0.00,,,0.00,0,0,n/a,2026-05-02T07:14:59Z
2026-05-02 03:19:57,51.8,50.4,29.89,NNE,23,0,1.2,95,0.00,,,0.00,0,0,n/a,2026-05-02T07:19:57Z
2026-05-02 03:24:56,51.8,50.4,29.89,NNE,23,0,1.2,95,0.00,,,0.00,0,0,n/a,2026-05-02T07:24:56Z
2026-05-02 03:29:58,51.8,50.4,29.89,NNE,23,0.1,1.2,95,0.00,,,0.00,0,0,n/a,2026-05-02T07:29:58Z
2026-05-02 03:34:57,51.9,50.5,29.89,NNE,23,0.6,1.2,95,0.00,,,0.00,0,0,n/a,2026-05-02T07:34:57Z
2026-05-02 03:39:56,52,50.6,29.89,NNE,23,0,1.2,95,0.00,,,0.00,0,0,n/a,2026-05-02T07:39:56Z
2026-05-02 03:44:58,52.1,50.7,29.90,NNE,22,0.7,2.4,95,0.00,,,0.00,0,0,n/a,2026-05-02T07:44:58Z
2026-05-02 03:49:56,52.1,50.7,29.90,North,6,0.9,2.4,95,0.00,,,0.00,0,0,n/a,2026-05-02T07:49:56Z
2026-05-02 03:54:59,52.2,50.8,29.90,NNW,342,1.8,3.6,95,0.00,,,0.00,0,0,n/a,2026-05-02T07:54:59Z
2026-05-02 03:59:57,52.3,50.9,29.90,NNW,345,2.3,4.8,95,0.00,,,0.00,0,0,n/a,2026-05-02T07:59:57Z
2026-05-02 04:04:57,52.3,50.9,29.90,NNW,333,1.8,3.6,95,0.00,,,0.00,0,0,n/a,2026-05-02T08:04:57Z
2026-05-02 04:09:57,52.4,51,29.90,NW,307,1.6,3.6,95,0.00,,,0.00,0,0,n/a,2026-05-02T08:09:57Z
2026-05-02 04:14:56,52.5,51.1,29.90,NNW,332,1.5,2.4,95,0.00,,,0.00,0,0,n/a,2026-05-02T08:14:56Z
2026-05-02 04:19:58,52.6,51,29.90,NW,307,1.3,3.6,94.3,0.00,,,0.00,0,0,n/a,2026-05-02T08:19:58Z
2026-05-02 04:24:58,52.7,51,29.90,NW,324,1.7,3.6,94,0.00,,,0.00,0,0,n/a,2026-05-02T08:24:58Z
2026-05-02 04:29:56,52.8,51.1,29.90,NW,319,2.1,4.8,94,0.00,,,0.00,0,0,n/a,2026-05-02T08:29:56Z
2026-05-02 04:34:58,52.9,51.1,29.90,NNW,332,3.4,7.2,93.8,0.00,,,0.00,0,0,n/a,2026-05-02T08:34:58Z
2026-05-02 04:39:57,53,51,29.90,NNW,332,3.7,7.2,93,0.00,,,0.00,0,0,n/a,2026-05-02T08:39:57Z
2026-05-02 04:44:56,53.2,51,29.91,NNW,334,3.7,6.9,92.4,0.00,,,0.00,0,0,n/a,2026-05-02T08:44:56Z
2026-05-02 04:49:58,53.3,51,29.91,NNW,327,3.1,6,92,0.00,,,0.00,0,0,n/a,2026-05-02T08:49:58Z
2026-05-02 04:54:57,53.4,50.9,29.91,NNW,330,3.2,7.2,91.3,0.00,,,0.00,0,0,n/a,2026-05-02T08:54:57Z
2026-05-02 04:59:59,53.5,50.9,29.91,NW,322,3,6,91,0.00,,,0.00,0,0,n/a,2026-05-02T08:59:59Z
2026-05-02 05:04:59,53.6,50.9,29.91,NW,316,3.1,8.4,90.7,0.00,,,0.00,0,0,n/a,2026-05-02T09:04:59Z
2026-05-02 05:09:59,53.6,50.7,29.91,NW,309,2.7,6,90,0.00,,,0.00,0,0,n/a,2026-05-02T09:09:59Z
2026-05-02 05:14:58,53.7,50.8,29.91,NNW,331,3.4,6,90,0.00,,,0.00,0,0,n/a,2026-05-02T09:14:58Z
2026-05-02 05:19:56,53.8,50.9,29.91,NNW,343,3.3,5.8,90,0.00,,,0.00,0,0,n/a,2026-05-02T09:19:56Z
2026-05-02 05:24:58,53.8,50.9,29.91,NW,325,3.5,7.2,90,0.00,,,0.00,0,0,n/a,2026-05-02T09:24:58Z
2026-05-02 05:29:56,53.9,50.9,29.91,NW,325,3.2,6,90,0.00,,,0.00,0,0,n/a,2026-05-02T09:29:56Z
2026-05-02 05:34:59,53.9,50.7,29.91,NNW,330,4.6,8.4,89,0.00,,,0.00,0,0,n/a,2026-05-02T09:34:59Z
2026-05-02 05:39:57,53.9,50.7,29.91,NNW,331,5.1,9.6,89,0.00,,,0.00,0,0,n/a,2026-05-02T09:39:57Z
2026-05-02 05:44:56,54,50.7,29.91,NNW,336,5.8,12,88.8,0.00,,,0.00,0,0,n/a,2026-05-02T09:44:56Z
2026-05-02 05:49:58,54.1,50.6,29.91,NW,326,4.4,9.2,88,0.00,,,0.00,0,0,n/a,2026-05-02T09:49:58Z
2026-05-02 05:54:56,54.2,50.7,29.91,NW,314,4.3,9.6,88,0.00,,,0.00,0,0,n/a,2026-05-02T09:54:56Z
2026-05-02 05:59:58,54.3,50.6,29.91,NW,314,4.2,7.2,87.4,0.00,,,0.00,0,0,n/a,2026-05-02T09:59:58Z
2026-05-02 06:04:58,54.4,50.6,29.91,NNW,327,3.5,12,87,0.00,,,0.00,0,0,n/a,2026-05-02T10:04:58Z
2026-05-02 06:09:59,54.4,50.6,29.91,NW,325,5,11.5,87,0.00,,,0.00,0,0,n/a,2026-05-02T10:09:59Z
2026-05-02 06:14:58,54.3,50.7,29.91,NNW,330,4.9,12,87.9,0.00,,,0.00,0,0,n/a,2026-05-02T10:14:58Z
2026-05-02 06:19:57,54.2,50.7,29.91,NW,319,5,10.4,88,0.00,,,0.00,0,0,n/a,2026-05-02T10:19:57Z
2026-05-02 06:24:56,54,50.7,29.91,NNW,332,4.3,10.8,88.6,0.00,,,0.00,0,0,n/a,2026-05-02T10:24:56Z
2026-05-02 06:29:58,53.9,50.7,29.91,NNW,335,6.4,12,89.1,0.01,,,0.01,0,0,n/a,2026-05-02T10:29:58Z
2026-05-02 06:34:57,53.7,50.8,29.91,NNW,331,5.8,12,90,0.01,,,0.01,0,0,n/a,2026-05-02T10:34:57Z
2026-05-02 06:39:59,53.6,50.7,29.91,NNW,334,5.8,16.1,90,0.01,,,0.01,0,0,n/a,2026-05-02T10:39:59Z
2026-05-02 06:44:58,53.5,50.9,29.91,NW,323,4.5,12.7,91,0.02,,,0.02,0,0,n/a,2026-05-02T10:44:58Z
2026-05-02 06:49:56,53.4,50.8,29.91,NW,324,4.2,8.4,91,0.02,,,0.02,0,0,n/a,2026-05-02T10:49:56Z
2026-05-02 06:54:58,53.3,50.7,29.91,NNW,336,6.5,13.2,91,0.03,,,0.03,0,0,n/a,2026-05-02T10:54:58Z
2026-05-02 06:59:56,53.2,50.6,29.91,NNW,331,6.2,15,91,0.03,,,0.03,0,0,n/a,2026-05-02T10:59:56Z
2026-05-02 07:04:59,53.2,50.6,29.91,NNW,331,3.5,6,91,0.04,,,0.04,5,0,n/a,2026-05-02T11:04:59Z
2026-05-02 07:09:59,53.1,50.5,29.91,NNW,340,5.2,8.4,91,0.05,,,0.05,5,0,n/a,2026-05-02T11:09:59Z
2026-05-02 07:14:58,52.9,50.3,29.92,NNW,338,5.5,9.6,91,0.05,,,0.05,7,0,n/a,2026-05-02T11:14:58Z
2026-05-02 07:19:56,52.9,50.3,29.92,NNW,333,5.3,9.2,91,0.06,,,0.06,7,0,n/a,2026-05-02T11:19:56Z
2026-05-02 07:24:58,52.8,50.2,29.92,NNW,327,5,10.8,91,0.07,,,0.07,9,0,n/a,2026-05-02T11:24:58Z
2026-05-02 07:29:56,52.8,50.2,29.92,NNW,340,5.3,10.8,91,0.07,,,0.08,11,0,n/a,2026-05-02T11:29:56Z
2026-05-02 07:34:58,52.6,50,29.91,NNW,342,5.2,12,91,0.07,,,0.08,14,0,n/a,2026-05-02T11:34:58Z
2026-05-02 07:39:56,52.6,50,29.91,North,351,6.3,11.5,91,0.08,,,0.09,14,0,n/a,2026-05-02T11:39:56Z
2026-05-02 07:44:58,52.5,49.9,29.91,North,356,6.5,13.2,91,0.08,,,0.10,14,0,n/a,2026-05-02T11:44:58Z
2026-05-02 07:49:56,52.5,49.9,29.90,North,350,5.2,10.8,91.2,0.08,,,0.10,18,0,n/a,2026-05-02T11:49:56Z
2026-05-02 07:54:58,52.4,50.1,29.90,North,356,4,8.4,92,0.08,,,0.11,18,0,n/a,2026-05-02T11:54:58Z
2026-05-02 07:59:56,52.4,50.1,29.90,North,354,4.7,8.4,92,0.08,,,0.11,21,0,n/a,2026-05-02T11:59:56Z
2026-05-02 08:04:56,52.4,50.1,29.90,North,3,4.9,8.4,92,0.08,,,0.11,21,0,n/a,2026-05-02T12:04:56Z
2026-05-02 08:09:56,52.4,50.1,29.90,North,0,5.2,10.8,92,0.08,,,0.12,26,0,n/a,2026-05-02T12:09:56Z
2026-05-02 08:14:59,52.4,50.1,29.90,North,3,6.1,9.6,92,0.08,,,0.13,28,0,n/a,2026-05-02T12:14:59Z
2026-05-02 08:19:57,52.3,50,29.90,North,351,4.6,10.8,92,0.08,,,0.13,44,0,n/a,2026-05-02T12:19:57Z
2026-05-02 08:24:58,52.4,50.1,29.90,North,2,3.8,7.2,92,0.08,,,0.14,46,0,n/a,2026-05-02T12:24:58Z
2026-05-02 08:29:56,52.4,50.1,29.91,North,3,3.8,6.9,92,0.08,,,0.15,47,0,n/a,2026-05-02T12:29:56Z
2026-05-02 08:34:59,52.4,50.3,29.91,NNE,23,2.7,7.2,92.5,0.07,,,0.15,53,0,n/a,2026-05-02T12:34:59Z
2026-05-02 08:39:57,52.4,50.4,29.91,North,5,4.4,8.4,93,0.07,,,0.15,67,0,n/a,2026-05-02T12:39:57Z
2026-05-02 08:44:59,52.5,50.5,29.92,North,4,4.3,7.2,93,0.07,,,0.16,76,0,n/a,2026-05-02T12:44:59Z
2026-05-02 08:49:57,52.5,50.5,29.92,North,6,4.6,8.4,93,0.06,,,0.16,70,0.5,n/a,2026-05-02T12:49:57Z
2026-05-02 08:54:59,52.5,50.5,29.92,North,7,4.8,8.4,93,0.06,,,0.16,84,0.5,n/a,2026-05-02T12:54:59Z
2026-05-02 08:59:57,52.6,50.6,29.92,North,10,4.7,7.2,93,0.05,,,0.16,81,0.5,n/a,2026-05-02T12:59:57Z
2026-05-02 09:04:57,52.6,50.6,29.92,North,11,4.3,7.2,93,0.06,,,0.17,83,0.5,n/a,2026-05-02T13:04:57Z
2026-05-02 09:09:56,52.6,50.6,29.92,North,359,5.4,10.8,93,0.06,,,0.17,81,0.6,n/a,2026-05-02T13:09:56Z
2026-05-02 09:14:59,52.7,50.7,29.92,North,8,3.2,6,93,0.05,,,0.17,91,0.7,n/a,2026-05-02T13:14:59Z
2026-05-02 09:19:59,52.8,50.8,29.92,North,358,5.1,10.8,93,0.05,,,0.18,114,0.8,n/a,2026-05-02T13:19:59Z
2026-05-02 09:24:57,52.9,50.9,29.92,North,350,4.6,8.4,93,0.05,,,0.18,121,0.9,n/a,2026-05-02T13:24:57Z
2026-05-02 09:29:59,53,51,29.93,NNW,347,4.6,8.4,93,0.04,,,0.18,107,0.8,n/a,2026-05-02T13:29:59Z
2026-05-02 09:34:57,53.1,51.1,29.93,North,354,5,9.6,93,0.03,,,0.18,109,0.8,n/a,2026-05-02T13:34:57Z
2026-05-02 09:39:56,53.1,51.1,29.93,North,7,5.4,12,93,0.03,,,0.18,81,0.6,n/a,2026-05-02T13:39:56Z
2026-05-02 09:44:57,52.9,50.9,29.93,North,351,5.9,15,93,0.03,,,0.18,51,0,n/a,2026-05-02T13:44:57Z
2026-05-02 09:49:59,52.8,50.8,29.92,North,6,5.4,12.7,93,0.02,,,0.18,51,0,n/a,2026-05-02T13:49:59Z
2026-05-02 09:54:58,52.7,50.7,29.92,NNE,13,4.1,8.4,93,0.03,,,0.19,51,0,n/a,2026-05-02T13:54:58Z
2026-05-02 09:59:59,52.7,50.7,29.93,NNE,28,4.7,10.8,93,0.03,,,0.19,62,0.5,n/a,2026-05-02T13:59:59Z
2026-05-02 10:04:59,52.7,50.7,29.93,North,11,5.4,16.8,93,0.03,,,0.20,69,0.6,n/a,2026-05-02T14:04:59Z
2026-05-02 10:09:56,52.7,50.8,29.93,NNE,15,4.9,17.3,93.3,0.04,,,0.21,63,0.5,n/a,2026-05-02T14:09:56Z
2026-05-02 10:14:58,52.7,51,29.95,NNE,15,4.6,10.8,94,0.05,,,0.22,53,0,n/a,2026-05-02T14:14:58Z
2026-05-02 10:19:56,52.6,50.6,29.95,NNE,23,5.3,10.8,93,0.05,,,0.22,54,0,n/a,2026-05-02T14:19:56Z
2026-05-02 10:24:58,52.6,50.6,29.95,NNE,18,3.1,7.2,93,0.05,,,0.23,67,0.6,n/a,2026-05-02T14:24:58Z
2026-05-02 10:29:59,52.7,50.9,29.96,North,9,3.5,8.4,93.6,0.06,,,0.24,77,0.7,n/a,2026-05-02T14:29:59Z
2026-05-02 10:34:58,52.7,50.8,29.96,North,1,4.2,8.4,93.7,0.07,,,0.25,84,0.8,n/a,2026-05-02T14:34:58Z
2026-05-02 10:39:56,52.6,50.9,29.96,NNE,21,4.1,8.4,94,0.08,,,0.26,95,0.9,n/a,2026-05-02T14:39:56Z
2026-05-02 10:44:58,52.6,50.8,29.96,NNE,29,6.5,10.8,93.5,0.08,,,0.27,111,1,n/a,2026-05-02T14:44:58Z
2026-05-02 10:49:56,52.6,50.8,29.95,NNE,27,4.9,8.4,93.7,0.09,,,0.27,114,1,n/a,2026-05-02T14:49:56Z
2026-05-02 10:54:58,52.6,50.9,29.95,NNE,28,4.4,12,94,0.09,,,0.28,114,1,n/a,2026-05-02T14:54:58Z
2026-05-02 10:59:59,52.7,51,29.96,NE,41,4.3,8.4,94,0.09,,,0.28,98,0.9,n/a,2026-05-02T14:59:59Z
2026-05-02 11:04:59,52.5,50.6,29.96,NE,52,4.9,9.6,93,0.09,,,0.29,120,1.2,n/a,2026-05-02T15:04:59Z
2026-05-02 11:09:59,52.5,50.5,29.96,NE,37,4.5,10.8,93,0.09,,,0.29,121,1.2,n/a,2026-05-02T15:09:59Z
2026-05-02 11:14:57,52.4,50.4,29.96,NNE,33,5.4,13.2,93,0.08,,,0.30,146,1.4,n/a,2026-05-02T15:14:57Z
2026-05-02 11:19:59,52.4,50.4,29.95,NE,35,4.3,8.4,93,0.08,,,0.30,163,1.6,n/a,2026-05-02T15:19:59Z
2026-05-02 11:24:57,52.5,50.5,29.95,NNE,31,4.7,12,93,0.08,,,0.30,176,1.7,n/a,2026-05-02T15:24:57Z
2026-05-02 11:29:58,52.5,50.5,29.95,NE,39,4.2,8.4,93,0.07,,,0.30,165,1.6,n/a,2026-05-02T15:29:58Z
2026-05-02 11:34:58,52.5,50.5,29.95,NE,46,4.6,9.6,93,0.06,,,0.30,146,1.4,n/a,2026-05-02T15:34:58Z
2026-05-02 11:39:59,52.5,50.5,29.95,NE,52,2.3,4.8,93,0.05,,,0.30,132,1.3,n/a,2026-05-02T15:39:59Z
2026-05-02 11:44:57,52.6,50.6,29.95,NNE,23,2.4,4.8,93.1,0.05,,,0.31,114,1.2,n/a,2026-05-02T15:44:57Z
2026-05-02 11:49:59,52.7,50.8,29.95,NNE,31,2.9,6,93.4,0.04,,,0.31,104,1,n/a,2026-05-02T15:49:59Z
2026-05-02 11:54:57,52.6,50.6,29.95,NNE,26,3.6,7.2,93,0.04,,,0.31,98,1,n/a,2026-05-02T15:54:57Z
2026-05-02 11:59:59,52.3,50.3,29.96,NNE,26,3.1,8.4,93,0.03,,,0.31,102,1.1,n/a,2026-05-02T15:59:59Z
2026-05-02 12:04:58,52.1,50.1,29.96,NE,45,4.9,8.4,93,0.04,,,0.32,102,1.1,n/a,2026-05-02T16:04:58Z
2026-05-02 12:09:58,52,50,29.96,NE,35,3.2,6,93,0.03,,,0.32,97,1,n/a,2026-05-02T16:09:58Z
2026-05-02 12:14:57,52,50,29.96,NE,49,3.8,6,93,0.04,,,0.33,100,1,n/a,2026-05-02T16:14:57Z
2026-05-02 12:19:59,52,50,29.96,NE,50,3.4,8.4,93,0.04,,,0.34,107,1.1,n/a,2026-05-02T16:19:59Z
2026-05-02 12:24:57,52,50,29.96,NE,52,2.3,5.8,93,0.04,,,0.35,104,1.1,n/a,2026-05-02T16:24:57Z
2026-05-02 12:29:59,52.1,50.1,29.96,NE,55,1.9,4.8,93,0.05,,,0.36,128,1.3,n/a,2026-05-02T16:29:59Z
2026-05-02 12:34:57,52.2,50.2,29.96,NNE,27,3.3,7.2,93,0.06,,,0.36,151,1.5,n/a,2026-05-02T16:34:57Z
2026-05-02 12:39:59,52.3,50.4,29.96,NE,50,1.9,6.9,93.5,0.07,,,0.37,151,1.5,n/a,2026-05-02T16:39:59Z
2026-05-02 12:44:57,52.5,50.8,29.96,ENE,65,1.5,3.6,94,0.07,,,0.37,146,1.5,n/a,2026-05-02T16:44:57Z
2026-05-02 12:49:59,52.8,51.1,29.95,NE,45,2,4.8,94,0.07,,,0.38,134,1.3,n/a,2026-05-02T16:49:59Z
2026-05-02 12:54:56,52.8,51.1,29.95,ENE,61,3.2,6,94,0.07,,,0.38,162,1.8,n/a,2026-05-02T16:54:56Z
2026-05-02 12:59:58,52.6,50.7,29.95,ENE,69,4,10.8,93.3,0.08,,,0.39,190,2,n/a,2026-05-02T16:59:58Z
2026-05-02 13:04:58,52.4,50.4,29.93,ENE,64,4.8,12,93,0.08,,,0.39,253,2.6,n/a,2026-05-02T17:04:58Z
2026-05-02 13:09:57,52.4,50.4,29.93,ENE,60,5.3,11.5,93,0.07,,,0.39,257,2.6,n/a,2026-05-02T17:09:57Z
2026-05-02 13:14:56,52.5,50.6,29.93,NE,41,4.3,13.2,93.2,0.07,,,0.39,243,2.5,n/a,2026-05-02T17:14:56Z
2026-05-02 13:19:58,52.3,50.2,29.93,NE,42,7,13.2,92.7,0.06,,,0.39,193,1.9,n/a,2026-05-02T17:19:58Z
2026-05-02 13:24:56,52.1,49.9,29.93,ENE,59,5,10.8,92.6,0.05,,,0.39,234,2.4,n/a,2026-05-02T17:24:56Z
2026-05-02 13:29:58,52.2,50.2,29.93,NE,55,3.8,10.8,93,0.05,,,0.40,243,2.5,n/a,2026-05-02T17:29:58Z
2026-05-02 13:34:56,52.4,50.4,29.93,ENE,63,4.6,8.4,93,0.04,,,0.40,211,2.2,n/a,2026-05-02T17:34:56Z
2026-05-02 13:39:58,52.3,50.3,29.93,ENE,66,5.8,12,92.8,0.04,,,0.40,155,1.5,n/a,2026-05-02T17:39:58Z
2026-05-02 13:44:56,52.3,50.1,29.93,ENE,65,5.2,11.5,92.3,0.03,,,0.40,156,1.6,n/a,2026-05-02T17:44:56Z
2026-05-02 13:49:58,52.2,49.9,29.92,ENE,76,4.7,10.4,92.3,0.03,,,0.40,183,1.9,n/a,2026-05-02T17:49:58Z
2026-05-02 13:54:56,52.3,50.3,29.92,ENE,62,4.3,7.2,93,0.02,,,0.40,181,1.9,n/a,2026-05-02T17:54:56Z
2026-05-02 13:59:59,52.4,50.4,29.93,NE,39,3.5,6,93,0.02,,,0.40,169,1.7,n/a,2026-05-02T17:59:59Z
2026-05-02 14:04:58,52.4,50.4,29.93,NE,41,2.7,4.8,93,0.02,,,0.41,130,1.3,n/a,2026-05-02T18:04:58Z
2026-05-02 14:09:58,52.5,50.5,29.93,NNE,31,3.5,8.4,93,0.02,,,0.41,120,1.2,n/a,2026-05-02T18:09:58Z
2026-05-02 14:14:56,52.5,50.5,29.93,North,3,3.9,8.1,93,0.02,,,0.41,100,1,n/a,2026-05-02T18:14:56Z
2026-05-02 14:19:59,52.4,50.4,29.93,North,0,4.6,9.6,93,0.03,,,0.42,116,1.2,n/a,2026-05-02T18:19:59Z
2026-05-02 14:24:57,52.3,50.3,29.93,NNE,27,3.7,9.2,93,0.03,,,0.42,134,1.3,n/a,2026-05-02T18:24:57Z
2026-05-02 14:29:59,52.3,50.3,29.93,NE,34,2.9,6,93,0.03,,,0.42,186,1.8,n/a,2026-05-02T18:29:59Z
2026-05-02 14:34:57,52.3,50.3,29.92,NE,44,3.8,7.2,93,0.02,,,0.42,241,2.4,n/a,2026-05-02T18:34:57Z
2026-05-02 14:39:56,52.4,50.4,29.92,NNE,30,4.3,9.6,93,0.02,,,0.42,237,2.4,n/a,2026-05-02T18:39:56Z
2026-05-02 14:44:58,52.5,50.5,29.92,NE,36,5,10.8,93,0.02,,,0.42,267,2.6,n/a,2026-05-02T18:44:58Z
2026-05-02 14:49:56,52.6,50.6,29.92,NNE,19,4.3,8.4,93,0.02,,,0.42,257,2.5,n/a,2026-05-02T18:49:56Z
2026-05-02 14:54:58,52.8,50.8,29.92,NNE,24,4.6,8.1,93,0.02,,,0.42,142,1.4,n/a,2026-05-02T18:54:58Z
2026-05-02 14:59:59,52.7,50.6,29.92,NNE,16,3.1,6,92.8,0.02,,,0.42,123,1.2,n/a,2026-05-02T18:59:59Z
2026-05-02 15:04:59,52.8,50.8,29.92,NNE,24,2.5,6,93,0.02,,,0.42,148,1.4,n/a,2026-05-02T19:04:59Z
2026-05-02 15:09:59,52.9,50.8,29.92,North,7,4.5,8.4,92.8,0.02,,,0.43,185,1.9,n/a,2026-05-02T19:09:59Z
2026-05-02 15:14:58,52.9,50.9,29.92,North,9,3.6,6,92.9,0.02,,,0.43,221,2.1,n/a,2026-05-02T19:14:58Z
2026-05-02 15:19:59,53,51,29.92,North,354,4.6,8.4,93,0.02,,,0.43,223,2.1,n/a,2026-05-02T19:19:59Z
2026-05-02 15:24:57,52.8,50.5,29.92,NNE,32,4.5,7.2,92,0.01,,,0.43,220,2,n/a,2026-05-02T19:24:57Z
2026-05-02 15:29:59,52.9,50.6,29.92,NNE,14,3.9,10.8,92.1,0.01,,,0.43,234,2.2,n/a,2026-05-02T19:29:59Z
2026-05-02 15:34:57,53.2,51.1,29.92,NNE,17,3.3,10.4,92.8,0.01,,,0.43,223,2.1,n/a,2026-05-02T19:34:57Z
2026-05-02 15:39:59,53.5,51.5,29.92,NNE,17,3.8,7.2,93,0.01,,,0.43,207,1.8,n/a,2026-05-02T19:39:59Z
2026-05-02 15:44:58,53.4,51.2,29.92,NE,34,5.2,9.6,92.1,0.01,,,0.43,188,1.7,n/a,2026-05-02T19:44:58Z
2026-05-02 15:49:56,53.2,50.8,29.91,NE,36,6.2,13.2,91.6,0.01,,,0.43,183,1.6,n/a,2026-05-02T19:49:56Z
2026-05-02 15:54:58,53,50.4,29.91,NNE,15,3.8,7.2,91,0.01,,,0.43,155,1.4,n/a,2026-05-02T19:54:58Z
2026-05-02 15:59:56,53.1,50.5,29.91,NNE,13,3.4,7.2,91,0.01,,,0.43,167,1.4,n/a,2026-05-02T19:59:56Z
2026-05-02 16:04:59,53.1,50.5,29.90,NE,55,3.3,7.2,91,0.01,,,0.43,185,1.5,n/a,2026-05-02T20:04:59Z
2026-05-02 16:09:59,53.3,50.7,29.90,NE,40,3.3,7.2,91,0.01,,,0.43,200,1.7,n/a,2026-05-02T20:09:59Z
2026-05-02 16:14:58,53.3,50.8,29.90,ENE,64,3.2,6,91.2,0.00,,,0.43,181,1.5,n/a,2026-05-02T20:14:58Z
2026-05-02 16:19:59,53.5,51.1,29.90,ENE,72,2.2,4.8,91.6,0.00,,,0.43,174,1.4,n/a,2026-05-02T20:19:59Z
2026-05-02 16:24:57,53.5,50.8,29.90,NE,46,3.5,7.2,90.6,0.00,,,0.43,167,1.3,n/a,2026-05-02T20:24:57Z
2026-05-02 16:29:59,53.4,50.5,29.90,ENE,59,3.6,7.2,90,0.00,,,0.43,153,1.2,n/a,2026-05-02T20:29:59Z
2026-05-02 16:34:57,53.4,50.4,29.90,NE,53,3.1,6.9,89.8,0.00,,,0.43,137,1.1,n/a,2026-05-02T20:34:57Z
2026-05-02 16:39:56,53.3,50.2,29.90,NE,53,2.5,4.8,89.2,0.01,,,0.44,146,1,n/a,2026-05-02T20:39:56Z
2026-05-02 16:44:59,53.4,50.3,29.90,NNE,24,2.4,8.4,89.3,0.01,,,0.44,169,1.3,n/a,2026-05-02T20:44:59Z
2026-05-02 16:49:56,53.4,50.2,29.90,NNE,27,3.5,6,89,0.01,,,0.44,174,1.3,n/a,2026-05-02T20:49:56Z
2026-05-02 16:54:58,53.5,50.3,29.90,NNE,21,2.3,3.6,89,0.01,,,0.44,192,1.3,n/a,2026-05-02T20:54:58Z
2026-05-02 16:59:56,53.7,50.5,29.90,ENE,64,2.7,4.8,89,0.01,,,0.44,199,1.3,n/a,2026-05-02T20:59:56Z
2026-05-02 17:04:56,53.8,50.6,29.90,ENE,66,1.7,3.6,89,0.01,,,0.44,167,1.2,n/a,2026-05-02T21:04:56Z
2026-05-02 17:09:56,54,50.8,29.90,NE,39,1.6,3.6,89,0.01,,,0.44,160,1.1,n/a,2026-05-02T21:09:56Z
2026-05-02 17:14:56,54,50.7,29.90,ENE,60,2.9,4.8,88.5,0.01,,,0.44,128,0.9,n/a,2026-05-02T21:14:56Z
2026-05-02 17:19:58,53.9,50.3,29.90,NNE,18,2.2,3.6,87.8,0.01,,,0.44,114,0.8,n/a,2026-05-02T21:19:58Z
2026-05-02 17:24:56,53.9,50.4,29.90,NNE,16,2.8,4.8,88,0.01,,,0.44,107,0.7,n/a,2026-05-02T21:24:56Z
2026-05-02 17:29:58,53.8,50.3,29.90,NE,39,2.4,3.6,88,0.01,,,0.44,109,0.7,n/a,2026-05-02T21:29:58Z
2026-05-02 17:34:56,53.8,50.4,29.90,ENE,64,1.7,3.5,88.4,0.01,,,0.44,105,0.7,n/a,2026-05-02T21:34:56Z
2026-05-02 17:39:59,53.9,50.7,29.90,NE,41,1.9,3.6,89,0.01,,,0.44,107,0.7,n/a,2026-05-02T21:39:59Z
2026-05-02 17:44:56,53.9,50.7,29.90,NE,53,2.2,3.6,89,0.00,,,0.44,107,0.6,n/a,2026-05-02T21:44:56Z
2026-05-02 17:49:59,53.9,50.7,29.90,East,89,1.6,3.6,89,0.00,,,0.44,100,0.6,n/a,2026-05-02T21:49:59Z
2026-05-02 17:54:57,54.1,51.1,29.90,ENE,78,1.7,3.6,89.9,0.00,,,0.44,100,0.6,n/a,2026-05-02T21:54:57Z
2026-05-02 17:59:59,54.1,51.2,29.90,East,96,1.5,3.6,90,0.00,,,0.44,91,0.5,n/a,2026-05-02T21:59:59Z
2026-05-02 18:04:58,54.1,51.2,29.90,ENE,60,1.9,3.6,90,0.00,,,0.44,77,0,n/a,2026-05-02T22:04:58Z
2026-05-02 18:09:58,54,51,29.90,NE,56,1.1,3.6,89.7,0.00,,,0.44,67,0,n/a,2026-05-02T22:09:58Z
2026-05-02 18:14:58,53.9,50.7,29.90,East,94,0.7,2.4,89,0.00,,,0.44,69,0,n/a,2026-05-02T22:14:58Z
2026-05-02 18:19:56,53.9,50.7,29.90,SE,130,1.3,2.4,89,0.00,,,0.44,63,0,n/a,2026-05-02T22:19:56Z
2026-05-02 18:24:59,53.9,50.7,29.90,East,94,0.5,1.2,89,0.00,,,0.44,53,0,n/a,2026-05-02T22:24:59Z
2026-05-02 18:29:57,53.9,50.7,29.90,East,91,0.3,2.4,89,0.00,,,0.44,51,0,n/a,2026-05-02T22:29:57Z
2026-05-02 18:34:56,53.9,50.7,29.90,ENE,63,1,2.4,89,0.00,,,0.44,46,0,n/a,2026-05-02T22:34:56Z
2026-05-02 18:39:59,53.9,50.7,29.90,SSE,167,0.4,1.2,89,0.00,,,0.44,39,0,n/a,2026-05-02T22:39:59Z
2026-05-02 18:44:57,53.9,50.7,29.90,SSE,161,0.4,1.2,89,0.00,,,0.44,32,0,n/a,2026-05-02T22:44:57Z
2026-05-02 18:49:56,53.9,50.9,29.90,SSE,161,1,2.4,89.7,0.00,,,0.44,30,0,n/a,2026-05-02T22:49:56Z
2026-05-02 18:54:59,53.8,50.9,29.90,SSE,163,0.2,1.2,90,0.00,,,0.44,28,0,n/a,2026-05-02T22:54:59Z
2026-05-02 18:59:57,53.9,51.1,29.91,South,170,0.2,1.2,90.4,0.00,,,0.44,26,0,n/a,2026-05-02T22:59:57Z